createdAt,value
2018-06-11T00:00:35.881Z,18.43
2018-06-11T00:03:03.761Z,18.40
2018-06-11T00:05:31.550Z,16.60
2018-06-11T00:07:59.125Z,17.90
2018-06-11T00:10:26.692Z,18.63
2018-06-11T00:12:54.195Z,18.30
2018-06-11T00:15:21.829Z,19.20
2018-06-11T00:17:49.385Z,17.43
2018-06-11T00:20:16.905Z,19.40
2018-06-11T00:22:44.421Z,17.97
2018-06-11T00:25:12.002Z,17.43
2018-06-11T00:27:39.547Z,21.63
2018-06-11T00:30:07.126Z,19.73
2018-06-11T00:32:35.012Z,22.73
2018-06-11T00:35:02.621Z,19.23
2018-06-11T00:37:30.265Z,17.13
2018-06-11T00:39:57.838Z,18.00
2018-06-11T00:42:25.383Z,18.50
2018-06-11T00:44:53.057Z,19.90
2018-06-11T00:47:20.681Z,18.53
2018-06-11T00:49:48.163Z,17.50
2018-06-11T00:52:15.782Z,18.10
2018-06-11T00:54:43.338Z,16.47
2018-06-11T00:57:11.070Z,16.57
2018-06-11T00:59:38.752Z,16.97
2018-06-11T01:02:06.313Z,16.87
2018-06-11T01:04:33.849Z,26.67
2018-06-11T01:07:01.438Z,16.77
2018-06-11T01:09:29.324Z,19.37
2018-06-11T01:11:56.958Z,21.53
2018-06-11T01:14:24.571Z,17.27
2018-06-11T01:16:52.124Z,16.53
2018-06-11T01:19:19.720Z,17.63
2018-06-11T01:21:47.374Z,17.17
2018-06-11T01:24:15.003Z,22.77
2018-06-11T01:26:42.693Z,17.60
2018-06-11T01:29:10.268Z,21.40
2018-06-11T01:31:37.916Z,19.10
2018-06-11T01:34:05.651Z,18.40
2018-06-11T01:36:33.228Z,18.13
2018-06-11T01:39:00.975Z,19.10
2018-06-11T01:41:28.552Z,18.73
2018-06-11T01:43:56.206Z,18.03
2018-06-11T01:46:23.847Z,17.80
2018-06-11T01:48:51.485Z,18.50
2018-06-11T01:51:19.081Z,19.03
2018-06-11T01:53:46.873Z,17.30
2018-06-11T01:56:14.453Z,19.13
2018-06-11T01:58:42.041Z,21.23
2018-06-11T02:01:09.616Z,22.37
2018-06-11T02:03:37.183Z,22.40
2018-06-11T02:06:05.416Z,18.67
2018-06-11T02:08:33.037Z,22.10
2018-06-11T02:11:00.653Z,19.07
2018-06-11T02:13:28.250Z,19.07
2018-06-11T02:15:56.296Z,18.07
2018-06-11T02:18:23.833Z,19.07
2018-06-11T02:20:51.385Z,23.50
2018-06-11T02:23:18.958Z,19.57
2018-06-11T02:25:47.083Z,19.40
2018-06-11T02:28:14.747Z,20.40
2018-06-11T02:30:42.570Z,22.17
2018-06-11T02:33:10.964Z,21.90
2018-06-11T02:35:38.746Z,21.80
2018-06-11T02:38:06.588Z,21.03
2018-06-11T02:40:34.222Z,20.00
2018-06-11T02:43:01.917Z,21.30
2018-06-11T02:45:29.404Z,23.87
2018-06-11T02:47:57.293Z,26.37
2018-06-11T02:50:24.931Z,23.10
2018-06-11T02:52:52.474Z,20.30
2018-06-11T02:55:20.067Z,27.60
2018-06-11T02:57:47.682Z,20.33
2018-06-11T03:00:15.292Z,22.40
2018-06-11T03:02:42.825Z,23.03
2018-06-11T03:05:10.429Z,22.53
2018-06-11T03:07:38.066Z,21.47
2018-06-11T03:10:05.676Z,20.90
2018-06-11T03:12:33.516Z,27.00
2018-06-11T03:15:01.058Z,25.13
2018-06-11T03:17:29.117Z,25.23
2018-06-11T03:19:56.924Z,20.83
2018-06-11T03:22:24.477Z,24.27
2018-06-11T03:24:52.046Z,22.97
2018-06-11T03:27:19.629Z,23.10
2018-06-11T03:29:47.204Z,26.33
2018-06-11T03:32:14.736Z,20.43
2018-06-11T03:34:42.364Z,28.20
2018-06-11T03:37:09.968Z,23.43
2018-06-11T03:39:37.648Z,22.07
2018-06-11T03:42:05.422Z,21.77
2018-06-11T03:44:33.362Z,27.50
2018-06-11T03:47:00.913Z,26.40
2018-06-11T03:49:28.650Z,24.33
2018-06-11T03:51:56.725Z,25.13
2018-06-11T03:54:24.292Z,23.70
2018-06-11T03:56:51.933Z,23.43
2018-06-11T03:59:19.493Z,24.17
2018-06-11T04:01:47.377Z,21.00
2018-06-11T04:04:15.839Z,22.33
2018-06-11T04:06:43.453Z,22.67
2018-06-11T04:09:11.073Z,24.50
2018-06-11T04:11:38.649Z,22.90
2018-06-11T04:14:06.238Z,21.50
2018-06-11T04:16:33.767Z,22.40
2018-06-11T04:19:01.370Z,24.80
2018-06-11T04:21:29.234Z,20.10
2018-06-11T04:23:56.938Z,24.30
2018-06-11T04:26:24.593Z,24.47
2018-06-11T04:28:52.117Z,17.73
2018-06-11T04:31:19.664Z,18.57
2018-06-11T04:33:47.257Z,19.70
2018-06-11T04:36:14.818Z,21.00
2018-06-11T04:38:42.417Z,16.20
2018-06-11T04:41:10.026Z,16.63
2018-06-11T04:43:37.756Z,22.53
2018-06-11T04:46:05.572Z,14.67
2018-06-11T04:48:33.146Z,21.63
2018-06-11T04:51:00.678Z,13.33
2018-06-11T04:53:28.262Z,15.87
2018-06-11T04:55:55.865Z,15.53
2018-06-11T04:58:23.397Z,13.60
2018-06-11T05:00:51.026Z,16.43
2018-06-11T05:03:18.678Z,14.67
2018-06-11T05:05:46.207Z,14.93
2018-06-11T05:08:13.790Z,12.87
2018-06-11T05:10:41.313Z,15.77
2018-06-11T05:13:08.864Z,14.47
2018-06-11T05:15:36.394Z,11.77
2018-06-11T05:18:03.979Z,11.60
2018-06-11T05:20:31.616Z,15.47
2018-06-11T05:22:59.544Z,14.73
2018-06-11T05:25:27.294Z,13.33
2018-06-11T05:27:55.014Z,12.10
2018-06-11T05:30:22.758Z,12.00
2018-06-11T05:32:50.348Z,13.13
2018-06-11T05:35:17.962Z,20.63
2018-06-11T05:37:45.720Z,12.20
2018-06-11T05:40:13.776Z,13.47
2018-06-11T05:42:41.781Z,15.67
2018-06-11T05:45:09.541Z,12.57
2018-06-11T05:47:37.511Z,12.10
2018-06-11T05:50:05.411Z,14.33
2018-06-11T05:52:33.201Z,12.13
2018-06-11T05:55:00.807Z,12.83
2018-06-11T05:57:28.359Z,12.30
2018-06-11T05:59:55.985Z,14.13
2018-06-11T06:02:23.741Z,14.50
2018-06-11T06:04:51.344Z,13.27
2018-06-11T06:07:19.182Z,10.67
2018-06-11T06:09:47.275Z,14.80
2018-06-11T06:12:14.897Z,11.90
2018-06-11T06:14:42.616Z,15.67
2018-06-11T06:17:10.253Z,11.90
2018-06-11T06:19:38.203Z,12.87
2018-06-11T06:22:05.868Z,13.60
2018-06-11T06:24:33.531Z,12.10
2018-06-11T06:27:01.497Z,10.47
2018-06-11T06:29:29.077Z,15.70
2018-06-11T06:31:56.734Z,10.83
2018-06-11T06:34:24.265Z,13.73
2018-06-11T06:36:51.894Z,13.53
2018-06-11T06:39:19.460Z,11.13
2018-06-11T06:41:47.085Z,11.47
2018-06-11T06:44:14.702Z,10.67
2018-06-11T06:46:42.262Z,15.10
2018-06-11T06:49:10.144Z,10.30
2018-06-11T06:51:37.718Z,10.47
2018-06-11T06:54:05.316Z,10.17
2018-06-11T06:56:32.894Z,10.10
2018-06-11T06:59:00.528Z,11.40
2018-06-11T07:01:28.125Z,12.63
2018-06-11T07:03:55.799Z,10.73
2018-06-11T07:06:23.546Z,11.10
2018-06-11T07:08:51.521Z,9.70
2018-06-11T07:11:19.191Z,9.43
2018-06-11T07:13:46.767Z,8.97
2018-06-11T07:16:14.348Z,12.47
2018-06-11T07:18:42.365Z,9.90
2018-06-11T07:21:10.061Z,11.13
2018-06-11T07:23:37.652Z,8.90
2018-06-11T07:26:05.320Z,8.93
2018-06-11T07:28:33.037Z,9.50
2018-06-11T07:31:00.712Z,8.17
2018-06-11T07:33:28.305Z,8.17
2018-06-11T07:35:55.952Z,8.57
2018-06-11T07:38:23.641Z,8.07
2018-06-11T07:40:51.457Z,8.33
2018-06-11T07:43:19.045Z,8.00
2018-06-11T07:45:46.604Z,9.43
2018-06-11T07:48:14.157Z,8.20
2018-06-11T07:50:41.741Z,13.07
2018-06-11T07:53:09.363Z,8.63
2018-06-11T07:55:36.924Z,9.03
2018-06-11T07:58:04.477Z,16.63
2018-06-11T08:00:32.126Z,12.20
2018-06-11T08:02:59.689Z,10.37
2018-06-11T08:05:27.269Z,9.57
2018-06-11T08:07:54.875Z,10.57
2018-06-11T08:10:22.446Z,13.47
2018-06-11T08:12:50.020Z,14.33
2018-06-11T08:15:17.634Z,11.40
2018-06-11T08:17:45.358Z,10.53
2018-06-11T08:20:12.938Z,13.27
2018-06-11T08:22:40.565Z,15.10
2018-06-11T08:25:08.187Z,11.77
2018-06-11T08:27:35.953Z,17.00
2018-06-11T08:30:03.899Z,12.43
2018-06-11T08:32:31.413Z,13.70
2018-06-11T08:34:59.000Z,12.47
2018-06-11T08:37:26.634Z,15.57
2018-06-11T08:39:54.229Z,12.20
2018-06-11T08:42:21.813Z,10.70
2018-06-11T08:44:49.408Z,14.03
2018-06-11T08:47:16.984Z,13.70
2018-06-11T08:49:44.533Z,24.03
2018-06-11T08:52:12.125Z,15.13
2018-06-11T08:54:39.684Z,19.33
2018-06-11T08:57:07.253Z,15.03
2018-06-11T08:59:34.866Z,16.37
2018-06-11T09:02:02.520Z,18.37
2018-06-11T09:04:30.157Z,15.30
2018-06-11T09:06:57.819Z,18.50
2018-06-11T09:09:25.335Z,16.23
2018-06-11T09:11:52.931Z,23.00
2018-06-11T09:14:20.540Z,16.23
2018-06-11T09:16:48.246Z,16.20
2018-06-11T09:19:15.916Z,16.33
2018-06-11T09:21:43.540Z,16.50
2018-06-11T09:24:11.132Z,16.83
2018-06-11T09:26:38.764Z,17.47
2018-06-11T09:29:06.394Z,19.43
2018-06-11T09:31:33.922Z,15.50
2018-06-11T09:34:01.464Z,16.70
2018-06-11T09:36:29.037Z,16.10
2018-06-11T09:38:56.605Z,15.00
2018-06-11T09:41:24.166Z,14.57
2018-06-11T09:43:51.771Z,16.10
2018-06-11T09:46:19.302Z,16.50
2018-06-11T09:48:46.893Z,18.80
2018-06-11T09:51:14.480Z,19.47
2018-06-11T09:53:42.153Z,15.87
2018-06-11T09:56:09.701Z,20.17
2018-06-11T09:58:37.350Z,17.43
2018-06-11T10:01:05.125Z,14.80
2018-06-11T10:03:32.766Z,17.70
2018-06-11T10:06:00.318Z,16.80
2018-06-11T10:08:27.899Z,18.73
2018-06-11T10:10:55.457Z,15.50
2018-06-11T10:13:23.057Z,19.50
2018-06-11T10:15:50.609Z,14.53
2018-06-11T10:18:18.158Z,16.10
2018-06-11T10:20:45.893Z,17.70
2018-06-11T10:23:13.511Z,15.10
2018-06-11T10:25:41.353Z,17.37
2018-06-11T10:28:09.039Z,16.83
2018-06-11T10:30:36.621Z,13.70
2018-06-11T10:33:04.213Z,16.10
2018-06-11T10:35:32.013Z,28.33
2018-06-11T10:37:59.657Z,14.83
2018-06-11T10:40:27.305Z,14.50
2018-06-11T10:42:54.945Z,25.43
2018-06-11T10:45:22.569Z,12.33
2018-06-11T10:47:50.150Z,17.60
2018-06-11T10:50:17.820Z,17.30
2018-06-11T10:52:45.385Z,16.03
2018-06-11T10:55:13.025Z,14.63
2018-06-11T10:57:40.663Z,16.97
2018-06-11T11:00:08.291Z,15.30
2018-06-11T11:02:35.874Z,15.13
2018-06-11T11:05:03.614Z,13.30
2018-06-11T11:07:31.185Z,16.03
2018-06-11T11:09:58.778Z,17.50
2018-06-11T11:12:26.385Z,20.37
2018-06-11T11:14:53.961Z,16.50
2018-06-11T11:17:21.492Z,15.63
2018-06-11T11:19:49.145Z,16.23
2018-06-11T11:22:16.737Z,18.00
2018-06-11T11:24:44.278Z,17.27
2018-06-11T11:27:11.886Z,16.13
2018-06-11T11:29:39.504Z,14.97
2018-06-11T11:32:07.316Z,13.60
2018-06-11T11:34:34.914Z,17.20
2018-06-11T11:37:02.460Z,21.50
2018-06-11T11:39:30.164Z,23.43
2018-06-11T11:41:57.838Z,27.53
2018-06-11T11:44:25.449Z,18.20
2018-06-11T11:46:53.024Z,14.17
2018-06-11T11:49:20.619Z,17.60
2018-06-11T11:51:48.199Z,17.57
2018-06-11T11:54:15.869Z,19.60
2018-06-11T11:56:43.425Z,17.93
2018-06-11T11:59:10.984Z,13.90
2018-06-11T12:01:38.604Z,17.93
2018-06-11T12:04:06.255Z,15.43
2018-06-11T12:06:33.819Z,18.07
2018-06-11T12:09:01.611Z,13.70
2018-06-11T12:11:29.229Z,13.90
2018-06-11T12:13:57.005Z,13.73
2018-06-11T12:16:24.545Z,16.70
2018-06-11T12:18:52.167Z,19.80
2018-06-11T12:21:19.660Z,18.83
2018-06-11T12:23:47.220Z,14.67
2018-06-11T12:26:14.865Z,19.43
2018-06-11T12:28:42.375Z,22.53
2018-06-11T12:31:10.003Z,14.03
2018-06-11T12:33:37.724Z,12.10
2018-06-11T12:36:05.741Z,12.30
2018-06-11T12:38:33.318Z,17.13
2018-06-11T12:41:00.929Z,12.60
2018-06-11T12:43:28.613Z,12.73
2018-06-11T12:45:56.217Z,16.10
2018-06-11T12:48:24.010Z,13.93
2018-06-11T12:50:51.541Z,13.83
2018-06-11T12:53:19.277Z,17.73
2018-06-11T12:55:46.877Z,16.47
2018-06-11T12:58:14.421Z,16.53
2018-06-11T13:00:41.993Z,16.37
2018-06-11T13:03:09.637Z,15.53
2018-06-11T13:05:37.180Z,20.33
2018-06-11T13:08:04.791Z,16.43
2018-06-11T13:10:32.402Z,22.93
2018-06-11T13:12:59.991Z,27.63
2018-06-11T13:15:27.675Z,18.73
2018-06-11T13:17:55.309Z,16.70
2018-06-11T13:20:22.944Z,14.93
2018-06-11T13:22:50.630Z,21.57
2018-06-11T13:25:18.283Z,20.87
2018-06-11T13:27:45.897Z,17.37
2018-06-11T13:30:13.587Z,13.70
2018-06-11T13:32:41.282Z,15.73
2018-06-11T13:35:08.838Z,15.60
2018-06-11T13:37:36.434Z,16.77
2018-06-11T13:40:04.121Z,18.90
2018-06-11T13:42:31.724Z,16.37
2018-06-11T13:44:59.298Z,16.77
2018-06-11T13:47:26.978Z,15.27
2018-06-11T13:49:54.594Z,14.50
2018-06-11T13:52:22.158Z,18.70
2018-06-11T13:54:49.812Z,19.73
2018-06-11T13:57:17.406Z,23.33
2018-06-11T13:59:45.117Z,14.63
2018-06-11T14:02:12.741Z,16.57
2018-06-11T14:04:40.470Z,18.20
2018-06-11T14:07:08.194Z,18.13
2018-06-11T14:09:35.824Z,17.30
2018-06-11T14:12:03.502Z,22.90
2018-06-11T14:14:31.111Z,17.53
2018-06-11T14:16:58.716Z,18.57
2018-06-11T14:19:26.270Z,22.67
2018-06-11T14:21:54.007Z,20.40
2018-06-11T14:24:21.574Z,25.03
2018-06-11T14:26:49.166Z,30.30
2018-06-11T14:29:16.738Z,19.10
2018-06-11T14:31:44.378Z,28.07
2018-06-11T14:34:12.889Z,22.80
2018-06-11T14:36:40.485Z,17.03
2018-06-11T14:39:08.538Z,27.63
2018-06-11T14:41:36.122Z,26.30
2018-06-11T14:44:03.756Z,16.83
2018-06-11T14:46:31.337Z,20.60
2018-06-11T14:48:58.890Z,20.53
2018-06-11T14:51:26.486Z,21.20
2018-06-11T14:53:54.123Z,18.00
2018-06-11T14:56:21.825Z,26.93
2018-06-11T14:58:49.439Z,16.77
2018-06-11T15:01:17.035Z,23.90
2018-06-11T15:03:44.643Z,22.17
2018-06-11T15:06:12.251Z,27.20
2018-06-11T15:08:39.823Z,24.83
2018-06-11T15:11:07.636Z,29.37
2018-06-11T15:13:35.675Z,23.13
2018-06-11T15:16:03.601Z,18.13
2018-06-11T15:18:31.205Z,27.20
2018-06-11T15:20:58.829Z,27.10
2018-06-11T15:23:26.493Z,21.73
2018-06-11T15:25:54.097Z,24.10
2018-06-11T15:28:21.657Z,26.90
2018-06-11T15:30:49.378Z,21.80
2018-06-11T15:33:17.063Z,29.07
2018-06-11T15:35:44.669Z,27.60
2018-06-11T15:38:12.321Z,28.50
2018-06-11T15:40:39.889Z,29.77
2018-06-11T15:43:07.471Z,29.13
2018-06-11T15:45:35.146Z,28.70
2018-06-11T15:48:02.783Z,31.17
2018-06-11T15:50:30.461Z,38.10
2018-06-11T15:52:58.151Z,32.47
2018-06-11T15:55:25.855Z,29.67
2018-06-11T15:57:53.579Z,31.57
2018-06-11T16:00:21.228Z,31.67
2018-06-11T16:02:48.797Z,34.20
2018-06-11T16:05:16.499Z,34.23
2018-06-11T16:07:44.082Z,32.70
2018-06-11T16:10:11.660Z,31.80
2018-06-11T16:12:39.349Z,36.73
2018-06-11T16:15:06.992Z,41.50
2018-06-11T16:17:34.626Z,38.60
2018-06-11T16:20:02.252Z,45.17
2018-06-11T16:22:29.904Z,41.17
2018-06-11T16:24:57.543Z,35.70
2018-06-11T16:27:25.414Z,36.57
2018-06-11T16:29:53.071Z,36.17
2018-06-11T16:32:20.801Z,43.30
2018-06-11T16:34:48.391Z,41.50
2018-06-11T16:37:16.254Z,48.13
2018-06-11T16:39:43.872Z,41.00
2018-06-11T16:42:11.618Z,48.57
2018-06-11T16:44:39.226Z,45.63
2018-06-11T16:47:07.122Z,47.53
2018-06-11T16:49:34.720Z,56.50
2018-06-11T16:52:02.692Z,48.57
2018-06-11T16:54:30.254Z,54.37
2018-06-11T16:56:58.122Z,55.80
2018-06-11T16:59:25.808Z,53.77
2018-06-11T17:01:53.661Z,55.40
2018-06-11T17:04:21.554Z,58.80
2018-06-11T17:06:49.174Z,54.07
2018-06-11T17:09:16.985Z,65.60
2018-06-11T17:11:44.610Z,71.90
2018-06-11T17:14:12.271Z,68.23
2018-06-11T17:16:39.923Z,67.73
2018-06-11T17:19:07.598Z,63.43
2018-06-11T17:21:35.189Z,74.03
2018-06-11T17:24:02.906Z,82.90
2018-06-11T17:26:30.560Z,75.77
2018-06-11T17:28:58.255Z,69.10
2018-06-11T17:31:25.828Z,68.87
2018-06-11T17:33:53.671Z,64.07
2018-06-11T17:36:21.496Z,67.30
2018-06-11T17:38:49.289Z,69.70
2018-06-11T17:41:16.914Z,69.20
2018-06-11T17:43:44.539Z,69.63
2018-06-11T17:46:12.467Z,66.23
2018-06-11T17:48:40.075Z,81.90
2018-06-11T17:51:07.780Z,78.87
2018-06-11T17:53:35.395Z,80.07
2018-06-11T17:56:03.042Z,77.53
2018-06-11T17:58:30.746Z,66.00
2018-06-11T18:00:58.629Z,85.50
2018-06-11T18:03:26.335Z,68.17
2018-06-11T18:05:54.177Z,69.93
2018-06-11T18:08:21.859Z,78.17
2018-06-11T18:10:49.631Z,76.87
2018-06-11T18:13:17.306Z,88.37
2018-06-11T18:15:44.888Z,74.13
2018-06-11T18:18:12.569Z,65.13
2018-06-11T18:20:40.321Z,66.87
2018-06-11T18:23:08.010Z,59.00
2018-06-11T18:25:35.546Z,67.30
2018-06-11T18:28:03.274Z,59.30
2018-06-11T18:30:30.868Z,55.40
2018-06-11T18:32:58.542Z,59.90
2018-06-11T18:35:26.272Z,68.50
2018-06-11T18:37:53.933Z,61.50
2018-06-11T18:40:21.599Z,46.87
2018-06-11T18:42:49.393Z,48.80
2018-06-11T18:45:17.258Z,47.47
2018-06-11T18:47:44.920Z,45.30
2018-06-11T18:50:12.836Z,44.97
2018-06-11T18:52:40.518Z,47.33
2018-06-11T18:55:08.290Z,37.77
2018-06-11T18:57:36.018Z,41.53
2018-06-11T19:00:04.379Z,43.00
2018-06-11T19:02:31.946Z,39.27
2018-06-11T19:04:59.601Z,40.50
2018-06-11T19:07:27.223Z,33.83
2018-06-11T19:09:55.437Z,34.70
2018-06-11T19:12:23.327Z,45.67
2018-06-11T19:14:50.972Z,38.90
2018-06-11T19:17:18.553Z,36.90
2018-06-11T19:19:46.187Z,39.47
2018-06-11T19:22:13.793Z,31.70
2018-06-11T19:24:41.477Z,33.17
2018-06-11T19:27:09.090Z,36.60
2018-06-11T19:29:36.803Z,31.27
2018-06-11T19:32:04.523Z,35.93
2018-06-11T19:34:32.140Z,33.30
2018-06-11T19:36:59.709Z,32.57
2018-06-11T19:39:27.397Z,29.40
2018-06-11T19:41:55.021Z,28.10
2018-06-11T19:44:22.605Z,30.37
2018-06-11T19:46:50.192Z,27.23
2018-06-11T19:49:17.815Z,26.80
2018-06-11T19:51:45.397Z,34.27
2018-06-11T19:54:12.923Z,27.70
2018-06-11T19:56:40.556Z,22.60
2018-06-11T19:59:08.113Z,24.37
2018-06-11T20:01:35.693Z,26.70
2018-06-11T20:04:03.367Z,23.80
2018-06-11T20:06:30.996Z,21.40
2018-06-11T20:08:58.614Z,21.20
2018-06-11T20:11:26.242Z,24.93
2018-06-11T20:13:53.833Z,21.10
2018-06-11T20:16:21.420Z,25.73
2018-06-11T20:18:49.066Z,22.53
2018-06-11T20:21:16.702Z,21.53
2018-06-11T20:23:44.318Z,21.93
2018-06-11T20:26:11.938Z,22.33
2018-06-11T20:28:39.698Z,21.80
2018-06-11T20:31:07.338Z,21.00
2018-06-11T20:33:35.882Z,23.53
2018-06-11T20:36:03.542Z,22.30
2018-06-11T20:38:31.414Z,24.93
2018-06-11T20:40:59.106Z,24.77
2018-06-11T20:43:26.777Z,20.37
2018-06-11T20:45:54.697Z,22.30
2018-06-11T20:48:22.430Z,17.00
2018-06-11T20:50:50.145Z,18.63
2018-06-11T20:53:17.754Z,22.07
2018-06-11T20:55:45.539Z,16.57
2018-06-11T20:58:13.172Z,16.53
2018-06-11T21:00:41.209Z,19.50
2018-06-11T21:03:08.913Z,20.70
2018-06-11T21:05:36.561Z,21.80
2018-06-11T21:08:04.167Z,16.80
2018-06-11T21:10:31.867Z,19.07
2018-06-11T21:12:59.619Z,18.53
2018-06-11T21:15:27.193Z,16.80
2018-06-11T21:17:54.798Z,13.73
2018-06-11T21:20:22.757Z,14.90
2018-06-11T21:22:50.501Z,14.40
2018-06-11T21:25:18.264Z,19.00
2018-06-11T21:27:45.875Z,13.83
2018-06-11T21:30:13.454Z,14.30
2018-06-11T21:32:41.362Z,17.30
2018-06-11T21:35:09.136Z,14.07
2018-06-11T21:37:36.738Z,14.17
2018-06-11T21:40:04.342Z,14.00
2018-06-11T21:42:32.044Z,15.37
2018-06-11T21:45:00.196Z,14.87
2018-06-11T21:47:27.848Z,13.57
2018-06-11T21:49:55.406Z,12.73
2018-06-11T21:52:23.006Z,17.97
2018-06-11T21:54:50.975Z,12.60
2018-06-11T21:57:18.590Z,16.80
2018-06-11T21:59:46.349Z,14.00
2018-06-11T22:02:13.940Z,17.00
2018-06-11T22:04:42.073Z,18.90
2018-06-11T22:07:09.836Z,15.43
2018-06-11T22:09:38.332Z,13.63
2018-06-11T22:12:06.156Z,13.27
2018-06-11T22:14:33.706Z,14.40
2018-06-11T22:17:01.892Z,15.60
2018-06-11T22:19:29.658Z,12.83
2018-06-11T22:21:57.354Z,13.03
2018-06-11T22:24:25.020Z,15.97
2018-06-11T22:26:52.664Z,14.10
2018-06-11T22:29:20.647Z,15.90
2018-06-11T22:31:48.244Z,16.37
2018-06-11T22:34:15.866Z,13.23
2018-06-11T22:36:43.480Z,14.43
2018-06-11T22:39:11.326Z,20.80
2018-06-11T22:41:39.012Z,16.40
2018-06-11T22:44:06.640Z,16.20
2018-06-11T22:46:34.365Z,11.40
2018-06-11T22:49:01.982Z,14.83
2018-06-11T22:51:29.701Z,14.00
2018-06-11T22:53:57.386Z,12.43
2018-06-11T22:56:25.099Z,14.73
2018-06-11T22:58:52.706Z,11.77
2018-06-11T23:01:20.345Z,16.27
2018-06-11T23:03:47.935Z,14.60
2018-06-11T23:06:15.598Z,14.23
2018-06-11T23:08:43.297Z,12.47
2018-06-11T23:11:11.065Z,12.80
2018-06-11T23:13:38.647Z,16.10
2018-06-11T23:16:06.319Z,14.50
2018-06-11T23:18:35.047Z,16.70
2018-06-11T23:21:02.581Z,16.67
2018-06-11T23:23:30.674Z,15.07
2018-06-11T23:25:58.281Z,12.20
2018-06-11T23:28:25.957Z,15.17
2018-06-11T23:30:53.724Z,16.30
2018-06-11T23:33:21.341Z,12.77
2018-06-11T23:35:48.999Z,13.60
2018-06-11T23:38:16.639Z,14.20
2018-06-11T23:40:44.294Z,14.00
2018-06-11T23:43:11.985Z,17.03
2018-06-11T23:45:39.682Z,13.10
2018-06-11T23:48:07.392Z,12.80
2018-06-11T23:50:35.060Z,15.40
2018-06-11T23:53:02.750Z,10.10
2018-06-11T23:55:30.423Z,16.30
2018-06-11T23:57:58.026Z,10.93
